createdAt,value
2022-08-17T00:00:33.322Z,35.20
2022-08-17T00:05:51.902Z,32.92
2022-08-17T00:10:56.329Z,37.25
2022-08-17T00:16:03.461Z,31.58
2022-08-17T00:21:10.211Z,36.40
2022-08-17T00:26:14.428Z,35.60
2022-08-17T00:31:17.641Z,34.28
2022-08-17T00:36:21.310Z,36.95
2022-08-17T00:41:27.940Z,34.72
2022-08-17T00:46:41.015Z,28.08
2022-08-17T00:51:53.341Z,30.38
2022-08-17T00:57:01.301Z,29.33
2022-08-17T01:02:05.560Z,33.50
2022-08-17T01:07:11.200Z,34.67
2022-08-17T01:12:14.861Z,34.83
2022-08-17T01:17:18.401Z,38.72
2022-08-17T01:22:25.520Z,34.58
2022-08-17T01:27:30.551Z,39.85
2022-08-17T01:32:33.540Z,29.13
2022-08-17T01:37:41.744Z,43.95
2022-08-17T01:43:00.625Z,34.80
2022-08-17T01:48:04.208Z,37.50
2022-08-17T01:53:23.122Z,28.80
2022-08-17T01:58:26.362Z,28.77
2022-08-17T02:03:30.742Z,33.25
2022-08-17T02:08:39.191Z,30.65
2022-08-17T02:14:03.383Z,30.42
2022-08-17T02:19:09.460Z,38.97
2022-08-17T02:24:17.964Z,34.97
2022-08-17T02:29:41.300Z,34.85
2022-08-17T02:34:44.549Z,40.95
2022-08-17T02:39:48.457Z,37.42
2022-08-17T02:44:51.761Z,32.22
2022-08-17T02:49:56.058Z,28.73
2022-08-17T02:54:59.101Z,33.08
2022-08-17T03:00:02.360Z,43.72
2022-08-17T03:05:06.561Z,37.47
2022-08-17T03:10:11.084Z,37.70
2022-08-17T03:15:20.361Z,49.87
2022-08-17T03:20:25.361Z,41.75
2022-08-17T03:25:31.420Z,27.47
2022-08-17T03:30:38.129Z,90.32
2022-08-17T03:35:42.360Z,31.92
2022-08-17T03:40:57.313Z,34.67
2022-08-17T03:46:34.285Z,30.75
2022-08-17T03:51:56.502Z,27.73
2022-08-17T03:57:10.783Z,25.13
2022-08-17T04:02:21.515Z,28.10
2022-08-17T04:07:28.706Z,34.28
2022-08-17T04:12:51.522Z,29.37
2022-08-17T04:17:55.521Z,32.45
2022-08-17T04:23:02.762Z,41.72
2022-08-17T04:28:07.662Z,33.95
2022-08-17T04:33:22.381Z,43.13
2022-08-17T04:38:33.921Z,47.63
2022-08-17T04:43:39.071Z,44.83
2022-08-17T04:48:45.020Z,43.50
2022-08-17T04:53:54.441Z,44.00
2022-08-17T04:59:01.644Z,55.08
2022-08-17T05:04:19.951Z,54.70
2022-08-17T05:09:32.541Z,53.95
2022-08-17T05:14:35.723Z,55.50
2022-08-17T05:19:38.883Z,56.47
2022-08-17T05:24:43.551Z,54.97
2022-08-17T05:29:57.086Z,57.42
2022-08-17T05:35:00.992Z,61.15
2022-08-17T05:40:04.798Z,60.78
2022-08-17T05:45:08.904Z,68.40
2022-08-17T05:50:25.760Z,66.85
2022-08-17T05:55:49.443Z,53.97
2022-08-17T06:01:02.018Z,62.33
2022-08-17T06:06:20.427Z,54.97
2022-08-17T06:11:40.209Z,56.72
2022-08-17T06:16:48.563Z,58.25
2022-08-17T06:21:54.422Z,57.72
2022-08-17T06:27:06.941Z,58.35
2022-08-17T06:32:12.967Z,61.30
2022-08-17T06:37:37.823Z,59.08
2022-08-17T06:43:06.874Z,62.08
2022-08-17T06:48:31.622Z,59.50
2022-08-17T06:54:00.128Z,64.82
2022-08-17T06:59:04.105Z,57.45
2022-08-17T07:04:24.124Z,59.53
2022-08-17T07:09:38.198Z,55.08
2022-08-17T07:14:48.347Z,59.35
2022-08-17T07:19:57.442Z,54.42
2022-08-17T07:25:08.515Z,53.58
2022-08-17T07:30:22.416Z,48.65
2022-08-17T07:35:50.609Z,46.08
2022-08-17T07:41:03.081Z,42.17
2022-08-17T07:46:38.763Z,38.50
2022-08-17T07:51:57.687Z,33.25
2022-08-17T07:57:15.146Z,28.50
2022-08-17T08:02:31.881Z,29.00
2022-08-17T08:07:39.461Z,26.35
2022-08-17T08:12:43.323Z,23.38
2022-08-17T08:17:53.433Z,16.98
2022-08-17T08:23:12.571Z,18.98
2022-08-17T08:28:30.247Z,21.00
2022-08-17T08:34:53.207Z,18.95
2022-08-17T08:39:52.658Z,19.77
2022-08-17T08:45:08.214Z,16.00
2022-08-17T08:50:37.620Z,18.40
2022-08-17T08:55:56.903Z,14.25
2022-08-17T09:01:03.757Z,16.00
2022-08-17T09:06:32.228Z,14.60
2022-08-17T09:12:09.610Z,14.15
2022-08-17T09:17:33.802Z,13.50
2022-08-17T09:22:43.666Z,10.60
2022-08-17T09:28:07.311Z,13.93
2022-08-17T09:33:15.086Z,12.55
2022-08-17T09:38:53.327Z,12.18
2022-08-17T09:44:23.210Z,11.88
2022-08-17T09:49:36.027Z,13.00
2022-08-17T09:54:41.802Z,11.75
2022-08-17T10:00:17.363Z,12.50
2022-08-17T10:05:32.922Z,9.88
2022-08-17T10:11:06.045Z,9.95
2022-08-17T10:16:29.888Z,12.65
2022-08-17T10:22:01.429Z,10.05
2022-08-17T10:27:22.066Z,11.00
2022-08-17T10:32:44.811Z,9.13
2022-08-17T10:37:50.779Z,8.25
2022-08-17T10:43:23.307Z,8.85
2022-08-17T10:48:33.052Z,7.95
2022-08-17T10:53:36.221Z,10.02
2022-08-17T10:58:55.150Z,9.63
2022-08-17T11:04:04.121Z,13.25
2022-08-17T11:09:24.441Z,9.60
2022-08-17T11:14:48.512Z,11.38
2022-08-17T11:20:38.325Z,12.80
2022-08-17T11:25:47.609Z,12.23
2022-08-17T11:30:57.448Z,11.90
2022-08-17T11:36:15.001Z,9.32
2022-08-17T11:41:28.073Z,11.35
2022-08-17T11:46:58.680Z,10.95
2022-08-17T11:52:01.813Z,9.75
2022-08-17T11:57:26.603Z,9.18
2022-08-17T12:02:32.190Z,9.60
2022-08-17T12:07:43.575Z,10.10
2022-08-17T12:12:50.763Z,7.82
2022-08-17T12:17:58.183Z,6.97
2022-08-17T12:23:07.636Z,8.07
2022-08-17T12:28:47.961Z,6.82
2022-08-17T12:33:52.361Z,9.07
2022-08-17T12:39:13.736Z,7.95
2022-08-17T12:44:22.008Z,8.00
2022-08-17T12:49:31.956Z,11.18
2022-08-17T12:54:57.629Z,7.95
2022-08-17T13:00:18.291Z,8.27
2022-08-17T13:05:28.121Z,8.55
2022-08-17T13:10:34.634Z,9.48
2022-08-17T13:15:43.228Z,8.95
2022-08-17T13:20:57.980Z,10.38
2022-08-17T13:26:16.991Z,8.10
2022-08-17T13:31:30.488Z,9.13
2022-08-17T13:36:34.020Z,9.98
2022-08-17T13:41:38.913Z,10.35
2022-08-17T13:46:52.523Z,13.48
2022-08-17T13:52:00.401Z,9.55
2022-08-17T13:57:22.037Z,9.88
2022-08-17T14:02:28.279Z,10.85
2022-08-17T14:07:36.502Z,11.20
2022-08-17T14:12:41.441Z,11.43
2022-08-17T14:17:44.689Z,12.43
2022-08-17T14:22:50.961Z,9.90
2022-08-17T14:27:55.061Z,9.93
2022-08-17T14:32:59.917Z,10.73
2022-08-17T14:38:02.960Z,11.57
2022-08-17T14:43:06.186Z,9.80
2022-08-17T14:48:09.582Z,10.65
2022-08-17T14:53:15.374Z,10.50
2022-08-17T14:58:19.209Z,11.00
2022-08-17T15:03:23.430Z,10.25
2022-08-17T15:08:28.685Z,11.18
2022-08-17T15:13:32.185Z,9.82
2022-08-17T15:18:37.054Z,9.57
2022-08-17T15:23:40.482Z,12.13
2022-08-17T15:28:48.984Z,13.10
2022-08-17T15:33:58.977Z,10.93
2022-08-17T15:39:02.282Z,9.63
2022-08-17T15:44:06.052Z,13.90
2022-08-17T15:49:09.344Z,9.68
2022-08-17T15:54:19.188Z,11.23
2022-08-17T15:59:26.306Z,10.00
2022-08-17T16:04:30.863Z,9.65
2022-08-17T16:09:34.970Z,11.15
2022-08-17T16:14:38.281Z,10.98
2022-08-17T16:19:42.291Z,10.93
2022-08-17T16:24:56.800Z,9.52
2022-08-17T16:30:01.563Z,10.23
2022-08-17T16:35:11.944Z,10.95
2022-08-17T16:40:17.547Z,12.68
2022-08-17T16:45:28.770Z,11.13
2022-08-17T16:50:33.181Z,11.32
2022-08-17T16:55:36.862Z,12.98
2022-08-17T17:00:40.386Z,20.02
2022-08-17T17:06:16.757Z,14.15
2022-08-17T17:11:39.801Z,12.40
2022-08-17T17:16:51.941Z,18.45
2022-08-17T17:22:22.669Z,12.70
2022-08-17T17:28:08.501Z,12.52
2022-08-17T17:33:23.201Z,11.02
2022-08-17T17:38:32.461Z,12.77
2022-08-17T17:43:40.244Z,17.08
2022-08-17T17:48:44.310Z,16.38
2022-08-17T17:54:07.841Z,14.25
2022-08-17T17:59:33.541Z,15.23
2022-08-17T18:04:51.401Z,17.83
2022-08-17T18:10:32.526Z,15.20
2022-08-17T18:15:54.414Z,17.30
2022-08-17T18:21:05.781Z,16.45
2022-08-17T18:26:09.065Z,17.33
2022-08-17T18:31:20.381Z,14.90
2022-08-17T18:36:32.841Z,19.27
2022-08-17T18:41:41.943Z,22.73
2022-08-17T18:46:45.041Z,18.02
2022-08-17T18:51:51.601Z,23.08
2022-08-17T18:57:04.191Z,16.77
2022-08-17T19:07:41.667Z,17.85
2022-08-17T19:13:00.869Z,23.35
2022-08-17T19:18:30.101Z,22.77
2022-08-17T19:23:54.187Z,21.30
2022-08-17T19:29:10.322Z,24.88
2022-08-17T19:34:16.661Z,20.63
2022-08-17T19:39:47.284Z,24.40
2022-08-17T19:45:23.288Z,23.17
2022-08-17T19:51:09.746Z,22.90
2022-08-17T19:56:24.427Z,19.45
2022-08-17T20:08:15.694Z,23.08
2022-08-17T20:13:33.282Z,21.10
2022-08-17T20:24:56.137Z,20.20
2022-08-17T20:30:49.200Z,19.77
2022-08-17T20:36:20.993Z,20.77
2022-08-17T20:41:30.391Z,22.02
2022-08-17T20:46:39.597Z,24.17
2022-08-17T20:52:21.057Z,22.48
2022-08-17T20:57:33.641Z,19.67
2022-08-17T21:02:37.453Z,28.15
2022-08-17T21:07:53.881Z,21.92
2022-08-17T21:13:08.786Z,23.63
2022-08-17T21:18:26.970Z,26.33
2022-08-17T21:24:08.105Z,25.27
2022-08-17T21:29:32.339Z,23.90
2022-08-17T21:34:36.457Z,25.55
2022-08-17T21:39:42.206Z,24.23
2022-08-17T21:44:50.955Z,29.30
2022-08-17T21:49:59.012Z,24.83
2022-08-17T21:55:03.715Z,25.73
2022-08-17T22:00:17.501Z,23.98
2022-08-17T22:05:30.285Z,29.63
2022-08-17T22:10:46.594Z,31.70
2022-08-17T22:16:27.810Z,28.85
2022-08-17T22:21:34.615Z,29.45
2022-08-17T22:27:04.374Z,30.77
2022-08-17T22:32:07.601Z,28.23
2022-08-17T22:37:32.092Z,28.33
2022-08-17T22:42:46.680Z,29.58
2022-08-17T22:47:55.203Z,29.05
2022-08-17T22:53:23.159Z,34.00
2022-08-17T22:58:58.854Z,29.65
2022-08-17T23:04:30.417Z,32.97
2022-08-17T23:09:34.277Z,35.40
2022-08-17T23:14:41.519Z,31.83
2022-08-17T23:19:45.637Z,33.83
2022-08-17T23:24:51.637Z,32.45
2022-08-17T23:29:56.884Z,33.88
2022-08-17T23:35:04.652Z,34.40
2022-08-17T23:40:33.962Z,33.45
2022-08-17T23:45:39.309Z,35.53
2022-08-17T23:50:43.056Z,35.28
2022-08-17T23:55:47.257Z,36.17
